Map

Track Data

SID SEASON NUMBER BASIN SUBBASIN NAME ISO_TIME NATURE LAT LON WMO_WIND WMO_PRES WMO_AGENCY TRACK_TYPE DIST2LAND LANDFALL IFLAG USA_AGENCY USA_ATCF_ID USA_LAT USA_LON USA_RECORD USA_STATUS USA_WIND USA_PRES USA_SSHS USA_R34_NE USA_R34_SE USA_R34_SW USA_R34_NW USA_R50_NE USA_R50_SE USA_R50_SW USA_R50_NW USA_R64_NE USA_R64_SE USA_R64_SW USA_R64_NW USA_POCI USA_ROCI USA_RMW USA_EYE TOKYO_LAT TOKYO_LON TOKYO_GRADE TOKYO_WIND TOKYO_PRES TOKYO_R50_DIR TOKYO_R50_LONG TOKYO_R50_SHORT TOKYO_R30_DIR TOKYO_R30_LONG TOKYO_R30_SHORT TOKYO_LAND CMA_LAT CMA_LON CMA_CAT CMA_WIND CMA_PRES HKO_LAT HKO_LON HKO_CAT HKO_WIND HKO_PRES NEWDELHI_LAT NEWDELHI_LON NEWDELHI_GRADE NEWDELHI_WIND NEWDELHI_PRES NEWDELHI_CI NEWDELHI_DP NEWDELHI_POCI REUNION_LAT REUNION_LON REUNION_TYPE REUNION_WIND REUNION_PRES REUNION_TNUM REUNION_CI REUNION_RMW REUNION_R34_NE REUNION_R34_SE REUNION_R34_SW REUNION_R34_NW REUNION_R50_NE REUNION_R50_SE REUNION_R50_SW REUNION_R50_NW REUNION_R64_NE REUNION_R64_SE REUNION_R64_SW REUNION_R64_NW BOM_LAT BOM_LON BOM_TYPE BOM_WIND BOM_PRES BOM_TNUM BOM_CI BOM_RMW BOM_R34_NE BOM_R34_SE BOM_R34_SW BOM_R34_NW BOM_R50_NE BOM_R50_SE BOM_R50_SW BOM_R50_NW BOM_R64_NE BOM_R64_SE BOM_R64_SW BOM_R64_NW BOM_ROCI BOM_POCI BOM_EYE BOM_POS_METHOD BOM_PRES_METHOD NADI_LAT NADI_LON NADI_CAT NADI_WIND NADI_PRES WELLINGTON_LAT WELLINGTON_LON WELLINGTON_WIND WELLINGTON_PRES DS824_LAT DS824_LON DS824_STAGE DS824_WIND DS824_PRES TD9636_LAT TD9636_LON TD9636_STAGE TD9636_WIND TD9636_PRES TD9635_LAT TD9635_LON TD9635_WIND TD9635_PRES TD9635_ROCI NEUMANN_LAT NEUMANN_LON NEUMANN_CLASS NEUMANN_WIND NEUMANN_PRES MLC_LAT MLC_LON MLC_CLASS MLC_WIND MLC_PRES USA_GUST BOM_GUST BOM_GUST_PER REUNION_GUST REUNION_GUST_PER USA_SEAHGT USA_SEARAD_NE USA_SEARAD_SE USA_SEARAD_SW USA_SEARAD_NW STORM_SPEED STORM_DIR
1883080S10453 1883 11 SI WA NOT_NAMED 1883-03-20 18:00:00 NR -10.4000 93.1000 main 1166 1166 __________O___ -1 -10.4000 93.1000 7 4 0
1883080S10453 1883 11 SI WA NOT_NAMED 1883-03-20 21:00:00 NR -10.6063 93.1094 main 1185 1185 __________P___ -1 -10.6063 93.1094 7 4 0
1883080S10453 1883 11 SI WA NOT_NAMED 1883-03-21 00:00:00 NR -10.8300 93.1251 main 1204 1204 __________P___ -1 -10.8300 93.1251 7 5 175
1883080S10453 1883 11 SI WA NOT_NAMED 1883-03-21 03:00:00 NR -11.0887 93.1532 main 1227 1227 __________P___ -1 -11.0887 93.1532 7 6 173
1883080S10453 1883 11 SI WA NOT_NAMED 1883-03-21 06:00:00 NR -11.4000 93.2000 main 1255 1255 __________O___ -1 -11.4000 93.2000 7 7 171
1883080S10453 1883 11 SI WA NOT_NAMED 1883-03-21 09:00:00 NR -11.7747 93.2703 main 1289 1289 __________P___ -1 -11.7747 93.2703 7 8 169
1883080S10453 1883 11 SI WA NOT_NAMED 1883-03-21 12:00:00 NR -12.1975 93.3626 main 1323 1323 __________P___ -1 -12.1975 93.3626 7 9 167
1883080S10453 1883 11 SI WA NOT_NAMED 1883-03-21 15:00:00 NR -12.6466 93.4735 main 1358 1358 __________P___ -1 -12.6466 93.4735 7 9 166
1883080S10453 1883 11 SI WA NOT_NAMED 1883-03-21 18:00:00 NR -13.1000 93.6000 main 1397 1397 __________O___ -1 -13.1000 93.6000 7 9 165
1883080S10453 1883 11 SI WA NOT_NAMED 1883-03-21 21:00:00 NR -13.5249 93.7196 main 1423 1423 __________P___ -1 -13.5249 93.7196 7 9 164
1883080S10453 1883 11 SI WA NOT_NAMED 1883-03-22 00:00:00 NR -13.9499 93.8554 main 1442 1442 __________P___ -1 -13.9499 93.8554 7 9 161
1883080S10453 1883 11 SI WA NOT_NAMED 1883-03-22 03:00:00 NR -14.3749 94.0135 main 1477 1477 __________P___ -1 -14.3749 94.0135 7 9 159
1883080S10453 1883 11 SI WA NOT_NAMED 1883-03-22 06:00:00 NR -14.8000 94.2000 main 1496 1496 __________O___ -1 -14.8000 94.2000 7 10 156
1883080S10453 1883 11 SI WA NOT_NAMED 1883-03-22 09:00:00 NR -15.2372 94.4172 main 1507 1506 __________P___ -1 -15.2372 94.4172 7 10 153
1883080S10453 1883 11 SI WA NOT_NAMED 1883-03-22 12:00:00 NR -15.6725 94.6625 main 1517 1516 __________P___ -1 -15.6725 94.6625 7 10 150
1883080S10453 1883 11 SI WA NOT_NAMED 1883-03-22 15:00:00 NR -16.0965 94.9266 main 1530 1522 __________P___ -1 -16.0965 94.9266 7 10 148
1883080S10453 1883 11 SI WA NOT_NAMED 1883-03-22 18:00:00 NR -16.5000 95.2000 main 1537 1537 __________O___ -1 -16.5000 95.2000 7 9 147
1883080S10453 1883 11 SI WA NOT_NAMED 1883-03-22 21:00:00 NR -16.8754 95.4561 main 1546 1546 __________P___ -1 -16.8754 95.4561 7 9 146
1883080S10453 1883 11 SI WA NOT_NAMED 1883-03-23 00:00:00 NR -17.2297 95.7207 main 1556 1556 __________P___ -1 -17.2297 95.7207 7 9 143
1883080S10453 1883 11 SI WA NOT_NAMED 1883-03-23 03:00:00 NR -17.5691 95.9999 main 1568 1561 __________P___ -1 -17.5691 95.9999 7 9 141
1883080S10453 1883 11 SI WA NOT_NAMED 1883-03-23 06:00:00 NR -17.9000 96.3000 main 1573 1573 __________O___ -1 -17.9000 96.3000 7 9 139
1883080S10453 1883 11 SI WA NOT_NAMED 1883-03-23 09:00:00 NR -18.2564 96.6203 main 1589 1583 __________P___ -1 -18.2564 96.6203 7 9 138
1883080S10453 1883 11 SI WA NOT_NAMED 1883-03-23 12:00:00 NR -18.6023 96.9624 main 1592 1592 __________P___ -1 -18.6023 96.9624 7 9 135
1883080S10453 1883 11 SI WA NOT_NAMED 1883-03-23 15:00:00 NR -18.9220 97.3234 main 1602 1600 __________P___ -1 -18.9220 97.3234 7 9 131
1883080S10453 1883 11 SI WA NOT_NAMED 1883-03-23 18:00:00 NR -19.2000 97.7000 main 1607 1602 __________O___ -1 -19.2000 97.7000 7 9 125
1883080S10453 1883 11 SI WA NOT_NAMED 1883-03-23 21:00:00 NR -19.4257 98.0890 main 1606 1600 __________P___ -1 -19.4257 98.0890 7 8 119
1883080S10453 1883 11 SI WA NOT_NAMED 1883-03-24 00:00:00 NR -19.6082 98.4873 main 1600 1554 __________P___ -1 -19.6082 98.4873 7 8 114
1883080S10453 1883 11 SI WA NOT_NAMED 1883-03-24 03:00:00 NR -19.7616 98.8919 main 1554 1511 __________P___ -1 -19.7616 98.8919 7 8 111
1883080S10453 1883 11 SI WA NOT_NAMED 1883-03-24 06:00:00 NR -19.9000 99.3000 main 1511 __________O___ -1 -19.9000 99.3000 7 8 110

About IBTrACS Database

This database is a web-friendly format of International Best Track Archive for Climate Stewardship (IBTrACS), a global best track data archive curated by NOAA dating back to 1842.

Updated: 2021-10-21